Time;durP1;ratioP1;P1;durP2;ratioP2;P2;SDS_P1;SDS_P2;PMS_P1;PMS_P2;Temp;Humidity;BMP_temperature;BMP_pressure;BME280_temperature;BME280_humidity;BME280_pressure;Samples;Min_cycle;Max_cycle;Signal;HPM_P1;HPM_P2
2023/08/14 00:01:51;;;;;;;;;;;;;;;;;;;;;
2023/08/14 00:04:20;;;;;;;6.65;2.50;;;;;;;;;;4968169;29;20395;-90
2023/08/14 00:06:54;;;;;;;8.27;2.55;;;;;;;;;;4949676;29;20243;-90
2023/08/14 00:09:35;;;;;;;8.40;2.78;;;;;;;;;;4971400;28;20055;-90
2023/08/14 00:12:16;;;;;;;6.88;2.92;;;;;;;;;;4951629;29;20074;-87
2023/08/14 00:15:03;;;;;;;4.60;3.00;;;;;;;;;;4951869;29;20043;-88
2023/08/14 00:17:43;;;;;;;7.00;3.28;;;;;;;;;;4951679;29;20078;-88
2023/08/14 00:20:21;;;;;;;4.90;2.90;;;;;;;;;;4950426;29;20293;-88
2023/08/14 00:23:08;;;;;;;7.82;3.00;;;;;;;;;;4951101;29;20134;-88
2023/08/14 00:25:52;;;;;;;8.77;3.40;;;;;;;;;;4952376;29;20058;-87
2023/08/14 00:28:28;;;;;;;11.10;4.18;;;;;;;;;;4968935;29;20439;-90
2023/08/14 00:31:13;;;;;;;11.52;3.22;;;;;;;;;;4954970;29;20346;-91
2023/08/14 00:33:45;;;;;;;7.38;3.40;;;;;;;;;;4953204;28;20363;-88
2023/08/14 00:36:37;;;;;;;8.05;3.13;;;;;;;;;;4956506;29;20220;-88
2023/08/14 00:42:45;;;;;;;10.75;3.72;;;;;;;;;;4969225;29;20090;-88
2023/08/14 00:45:17;;;;;;;8.68;3.80;;;;;;;;;;4953022;29;20047;-88
2023/08/14 00:47:59;;;;;;;7.82;3.00;;;;;;;;;;4953041;29;20094;-88
2023/08/14 00:50:39;;;;;;;8.38;3.22;;;;;;;;;;4953979;29;20055;-88
2023/08/14 00:53:13;;;;;;;7.10;2.92;;;;;;;;;;4952945;29;20122;-88
2023/08/14 00:55:58;;;;;;;6.32;2.83;;;;;;;;;;4969777;29;20051;-90
2023/08/14 00:58:27;;;;;;;6.60;3.10;;;;;;;;;;4975092;29;20062;-91
2023/08/14 01:01:05;;;;;;;9.70;3.10;;;;;;;;;;4972916;29;20035;-90
2023/08/14 01:03:48;;;;;;;;;;;;;;;;;;;;;
2023/08/14 01:06:29;;;;;;;;;;;;;;;;;;;;;
2023/08/14 01:09:03;;;;;;;7.25;3.63;;;;;;;;;;4972862;29;20082;-90
2023/08/14 01:11:55;;;;;;;6.57;3.38;;;;;;;;;;4953735;29;20074;-90
2023/08/14 01:14:35;;;;;;;6.30;3.38;;;;;;;;;;4956254;29;20082;-90
2023/08/14 01:17:17;;;;;;;7.78;4.05;;;;;;;;;;4956721;29;20070;-91
2023/08/14 01:20:11;;;;;;;7.05;3.55;;;;;;;;;;4956376;29;20541;-90
2023/08/14 01:23:05;;;;;;;11.68;4.20;;;;;;;;;;4957803;29;20065;-89
2023/08/14 01:25:43;;;;;;;10.18;3.92;;;;;;;;;;4972921;29;20051;-90
2023/08/14 01:28:20;;;;;;;13.73;4.70;;;;;;;;;;4945602;29;20067;-90
2023/08/14 01:30:59;;;;;;;14.23;3.85;;;;;;;;;;4935381;29;20070;-90
2023/08/14 01:33:52;;;;;;;14.20;3.55;;;;;;;;;;4937751;29;20046;-91
2023/08/14 01:36:32;;;;;;;10.70;4.15;;;;;;;;;;4934705;29;20060;-88
2023/08/14 01:39:08;;;;;;;5.68;3.55;;;;;;;;;;4934367;29;20062;-88
2023/08/14 01:41:53;;;;;;;12.35;4.30;;;;;;;;;;4946319;29;20095;-87
2023/08/14 01:44:24;;;;;;;11.30;3.72;;;;;;;;;;4934515;29;20116;-88
2023/08/14 01:46:58;;;;;;;12.55;4.25;;;;;;;;;;4933342;29;20051;-87
2023/08/14 01:49:47;;;;;;;8.05;3.90;;;;;;;;;;4933876;29;20047;-88
2023/08/14 01:52:30;;;;;;;13.57;4.60;;;;;;;;;;4930618;29;20049;-88
2023/08/14 01:55:14;;;;;;;10.65;4.55;;;;;;;;;;4933775;29;20303;-88
2023/08/14 01:57:55;;;;;;;7.78;4.30;;;;;;;;;;4932107;29;20075;-88
2023/08/14 02:00:49;;;;;;;7.95;4.78;;;;;;;;;;4933258;29;20048;-87
2023/08/14 02:03:33;;;;;;;10.93;4.20;;;;;;;;;;4946740;29;20303;-89
2023/08/14 02:06:07;;;;;;;10.52;3.97;;;;;;;;;;4948603;29;20142;-90
2023/08/14 02:08:41;;;;;;;7.05;3.92;;;;;;;;;;4932312;29;20123;-90
2023/08/14 02:11:12;;;;;;;9.73;4.18;;;;;;;;;;4930980;29;20043;-89
2023/08/14 02:13:51;;;;;;;10.05;3.90;;;;;;;;;;4932232;29;20384;-90
2023/08/14 02:16:23;;;;;;;13.68;4.88;;;;;;;;;;4948389;29;20051;-90
2023/08/14 02:19:00;;;;;;;10.05;4.50;;;;;;;;;;4930753;29;20071;-90
2023/08/14 02:21:52;;;;;;;6.70;4.55;;;;;;;;;;4932516;29;20051;-90
2023/08/14 02:24:43;;;;;;;10.90;4.75;;;;;;;;;;4933482;29;20063;-89
2023/08/14 02:27:18;;;;;;;7.07;4.32;;;;;;;;;;4932396;29;20467;-90
2023/08/14 02:29:51;;;;;;;9.98;4.15;;;;;;;;;;4953941;29;20038;-91
2023/08/14 02:32:21;;;;;;;10.57;5.25;;;;;;;;;;4960975;28;20045;-90
2023/08/14 02:34:54;;;;;;;7.95;4.57;;;;;;;;;;4951763;29;20439;-90
2023/08/14 02:37:39;;;;;;;14.80;4.60;;;;;;;;;;4966731;29;20115;-90
2023/08/14 02:40:11;;;;;;;8.77;4.40;;;;;;;;;;4972370;28;20457;-89
2023/08/14 02:42:47;;;;;;;8.85;4.35;;;;;;;;;;4949649;29;20514;-89
2023/08/14 02:45:19;;;;;;;12.60;4.75;;;;;;;;;;4967415;29;20445;-90
2023/08/14 02:47:51;;;;;;;19.75;6.75;;;;;;;;;;4966763;29;20047;-90
2023/08/14 02:50:35;;;;;;;12.80;5.93;;;;;;;;;;4951841;29;20098;-90
2023/08/14 02:53:15;;;;;;;14.43;5.50;;;;;;;;;;4965413;29;20047;-90
2023/08/14 02:55:51;;;;;;;12.75;5.65;;;;;;;;;;4950273;29;20078;-90
2023/08/14 02:58:21;;;;;;;10.35;5.28;;;;;;;;;;4949599;29;20652;-90
2023/08/14 03:00:54;;;;;;;8.77;5.05;;;;;;;;;;4949662;29;20307;-90
2023/08/14 03:03:30;;;;;;;8.82;4.90;;;;;;;;;;4949103;29;20099;-90
2023/08/14 03:05:59;;;;;;;13.27;5.18;;;;;;;;;;4947779;29;20054;-90
2023/08/14 03:08:29;;;;;;;9.38;5.13;;;;;;;;;;4965085;29;20436;-89
2023/08/14 03:11:05;;;;;;;12.48;5.63;;;;;;;;;;4950515;29;20059;-89
2023/08/14 03:13:51;;;;;;;17.55;5.32;;;;;;;;;;4967705;28;20054;-90
2023/08/14 03:16:32;;;;;;;10.43;5.30;;;;;;;;;;4955952;28;20031;-87
2023/08/14 03:19:13;;;;;;;15.07;5.45;;;;;;;;;;4955304;29;20051;-87
2023/08/14 03:21:54;;;;;;;9.07;5.68;;;;;;;;;;4952183;29;20082;-90
2023/08/14 03:24:25;;;;;;;12.95;6.82;;;;;;;;;;4969729;29;20051;-90
2023/08/14 03:26:56;;;;;;;11.73;6.20;;;;;;;;;;4970786;29;20105;-90
2023/08/14 03:29:38;;;;;;;8.63;5.13;;;;;;;;;;4957009;29;20048;-89
2023/08/14 20:23:04;;;;;;;9.00;5.40;;;;;;;;;;5587849;23;20047;-91
2023/08/14 20:25:56;;;;;;;;;;;;;;;;;;4963753;28;20059;-90
2023/08/14 20:40:06;;;;;;;12.80;5.43;;;;;;;;;;5643680;23;20078;-90
2023/08/14 20:42:52;;;;;;;;;;;;;;;;;;;;;
2023/08/14 20:50:51;;;;;;;12.20;5.47;;;;;;;;;;5691628;23;20073;-87
2023/08/14 20:53:45;;;;;;;15.63;5.75;;;;;;;;;;4970462;28;20411;-86
2023/08/14 20:56:30;;;;;;;14.23;6.88;;;;;;;;;;4958878;28;20058;-87
2023/08/14 20:59:35;;;;;;;15.05;6.53;;;;;;;;;;4974773;28;20105;-87
2023/08/14 21:02:32;;;;;;;10.52;5.15;;;;;;;;;;4971379;28;20058;-87
2023/08/14 21:05:09;;;;;;;12.38;5.65;;;;;;;;;;4972873;28;20050;-90
2023/08/14 21:07:43;;;;;;;9.45;5.10;;;;;;;;;;4990283;28;20047;-90
2023/08/14 21:10:11;;;;;;;9.82;5.20;;;;;;;;;;4976397;28;20450;-90
2023/08/14 21:12:59;;;;;;;10.30;4.13;;;;;;;;;;4974609;28;20059;-90
2023/08/14 21:15:37;;;;;;;9.70;3.65;;;;;;;;;;4974721;28;20093;-91
2023/08/14 21:18:27;;;;;;;12.63;4.28;;;;;;;;;;4973768;28;20081;-90
2023/08/14 21:21:04;;;;;;;8.03;4.03;;;;;;;;;;4972822;28;20080;-90
2023/08/14 21:23:39;;;;;;;9.90;4.40;;;;;;;;;;4989356;28;20090;-91
2023/08/14 21:26:08;;;;;;;7.45;3.92;;;;;;;;;;4973191;28;20074;-91
2023/08/14 21:28:36;;;;;;;8.10;3.72;;;;;;;;;;4972338;28;20078;-91
2023/08/14 21:31:04;;;;;;;8.77;3.83;;;;;;;;;;4970137;28;20058;-91
2023/08/14 21:33:34;;;;;;;6.10;3.72;;;;;;;;;;4987725;28;20372;-91
2023/08/14 21:36:26;;;;;;;9.98;4.35;;;;;;;;;;4973627;28;20054;-90
2023/08/14 21:39:06;;;;;;;6.63;3.55;;;;;;;;;;4971190;28;20160;-90
2023/08/14 21:41:34;;;;;;;7.55;4.15;;;;;;;;;;4971208;28;20055;-90
2023/08/14 21:44:02;;;;;;;10.25;4.18;;;;;;;;;;4989068;28;20074;-89
2023/08/14 21:46:34;;;;;;;7.28;4.55;;;;;;;;;;4973564;28;20062;-90
2023/08/14 21:49:03;;;;;;;11.27;4.10;;;;;;;;;;4971201;28;20074;-90
2023/08/14 21:51:36;;;;;;;8.18;4.63;;;;;;;;;;4968140;29;20145;-90
2023/08/14 21:54:04;;;;;;;9.32;3.97;;;;;;;;;;4967929;28;20078;-90
2023/08/14 21:56:32;;;;;;;14.57;4.57;;;;;;;;;;4967380;29;20142;-90
2023/08/14 21:59:05;;;;;;;37.55;5.10;;;;;;;;;;4968379;29;20075;-91
2023/08/14 22:01:36;;;;;;;7.25;3.67;;;;;;;;;;4968491;29;20396;-89
2023/08/14 22:04:11;;;;;;;10.52;3.85;;;;;;;;;;4968129;29;20051;-90
2023/08/14 22:06:51;;;;;;;12.68;3.45;;;;;;;;;;4967638;29;20043;-90
2023/08/14 22:09:28;;;;;;;7.28;3.58;;;;;;;;;;4969797;28;20106;-90
2023/08/14 22:12:02;;;;;;;6.53;3.65;;;;;;;;;;4968294;29;20110;-90
2023/08/14 22:14:32;;;;;;;8.27;4.00;;;;;;;;;;4968644;28;20094;-89
2023/08/14 22:17:10;;;;;;;10.88;3.47;;;;;;;;;;4967564;29;20047;-90
2023/08/14 22:19:39;;;;;;;8.85;3.47;;;;;;;;;;4969428;28;20208;-90
2023/08/14 22:22:15;;;;;;;6.97;3.92;;;;;;;;;;4967918;28;20195;-90
2023/08/14 22:24:45;;;;;;;7.05;3.50;;;;;;;;;;4969940;29;20051;-91
2023/08/14 22:27:27;;;;;;;8.40;3.92;;;;;;;;;;4965855;28;20118;-90
2023/08/14 22:29:59;;;;;;;8.38;3.75;;;;;;;;;;4966475;28;20118;-90
2023/08/14 22:32:27;;;;;;;17.98;4.15;;;;;;;;;;4966367;29;20059;-89
2023/08/14 22:35:04;;;;;;;11.30;3.60;;;;;;;;;;4966353;28;20110;-90
2023/08/14 22:37:53;;;;;;;6.00;3.40;;;;;;;;;;4966197;29;20074;-90
2023/08/14 22:40:26;;;;;;;9.30;3.88;;;;;;;;;;4965969;29;20310;-90
2023/08/14 22:42:58;;;;;;;10.00;4.10;;;;;;;;;;4965635;29;20051;-89
2023/08/14 22:45:30;;;;;;;13.00;4.40;;;;;;;;;;4965669;29;20077;-90
2023/08/14 22:47:59;;;;;;;11.82;4.00;;;;;;;;;;4965067;29;20467;-89
2023/08/14 22:50:31;;;;;;;9.43;3.50;;;;;;;;;;4968469;28;20089;-90
2023/08/14 22:53:03;;;;;;;7.63;3.75;;;;;;;;;;4969815;28;20438;-89
2023/08/14 22:55:35;;;;;;;8.68;3.55;;;;;;;;;;4985167;28;20553;-89
2023/08/14 22:58:04;;;;;;;11.77;3.80;;;;;;;;;;4969080;28;20051;-90
2023/08/14 23:00:34;;;;;;;12.77;4.57;;;;;;;;;;4984297;28;20060;-91
2023/08/14 23:03:16;;;;;;;;;;;;;;;;;;;;;
2023/08/14 23:05:46;;;;;;;8.65;3.50;;;;;;;;;;4985980;28;20047;-91
2023/08/14 23:08:22;;;;;;;12.63;4.00;;;;;;;;;;4985743;28;20059;-89
2023/08/14 23:10:56;;;;;;;11.95;4.22;;;;;;;;;;4984996;28;20047;-87
2023/08/14 23:13:39;;;;;;;8.38;3.85;;;;;;;;;;4967853;28;20379;-86
2023/08/14 23:16:11;;;;;;;16.30;3.83;;;;;;;;;;4965574;28;20239;-87
2023/08/14 23:18:44;;;;;;;9.18;3.92;;;;;;;;;;4970142;28;20040;-87
2023/08/14 23:21:25;;;;;;;12.13;4.55;;;;;;;;;;4972661;28;20062;-88
2023/08/14 23:32:36;;;;;;;8.93;3.38;;;;;;;;;;5444566;23;20047;-90
2023/08/14 23:35:08;;;;;;;10.35;3.90;;;;;;;;;;4973503;28;20055;-91
2023/08/14 23:37:41;;;;;;;13.43;3.78;;;;;;;;;;4991169;28;20304;-90
2023/08/14 23:40:14;;;;;;;11.70;4.50;;;;;;;;;;4993114;28;20062;-90
2023/08/14 23:42:45;;;;;;;8.10;3.42;;;;;;;;;;4973695;28;20071;-89
2023/08/14 23:45:17;;;;;;;10.48;4.00;;;;;;;;;;4973350;28;20078;-89
2023/08/14 23:47:48;;;;;;;10.57;3.17;;;;;;;;;;4973171;28;20085;-89
2023/08/14 23:50:16;;;;;;;11.88;4.25;;;;;;;;;;4972021;28;20059;-90
2023/08/14 23:52:46;;;;;;;6.50;4.10;;;;;;;;;;4988548;28;20053;-90
2023/08/14 23:55:18;;;;;;;11.13;3.95;;;;;;;;;;4989001;28;20077;-89
2023/08/14 23:57:47;;;;;;;10.25;5.05;;;;;;;;;;4988806;28;20063;-88
